This is the latest recevied weather packets stored in our database for station/object W4MSI. If no packets are shown the sender has not sent any weather packets the latest 1 day(s).
| Time | Temp. | Humidity | Pressure | Rain* | Wind** | Luminosity | Snow |
|---|---|---|---|---|---|---|---|
| 1778009934 | 22.22° C | 59% | 1008.2 hPa | 0 mm | 5.81 m/s, 199° | 422 W/m² | - |
| 1778009633 | 21.67° C | 62% | 1008.2 hPa | 0 mm | 1.79 m/s, 151° | 407 W/m² | - |
| 1778009330 | 21.67° C | 62% | 1008.2 hPa | 0 mm | 6.26 m/s, 200° | 560 W/m² | - |
| 1778009028 | 21.67° C | 63% | 1008.3 hPa | 0 mm | 3.13 m/s, 287° | 451 W/m² | - |
| 1778008725 | 21.67° C | 63% | 1008.4 hPa | 0 mm | 6.71 m/s, 201° | 787 W/m² | - |
| 1778008424 | 21.67° C | 63% | 1008.5 hPa | 0 mm | 5.81 m/s, 198° | 331 W/m² | - |
| 1778008120 | 21.67° C | 64% | 1008.9 hPa | 0 mm | 3.58 m/s, 182° | 444 W/m² | - |
| 1778007816 | 21.67° C | 63% | 1009 hPa | 0 mm | 5.81 m/s, 243° | 883 W/m² | - |
| 1778007511 | 21.11° C | 64% | 1008.9 hPa | 0 mm | 3.13 m/s, 204° | 875 W/m² | - |
| 1778007208 | 21.11° C | 64% | 1008.9 hPa | 0 mm | 3.13 m/s, 153° | 839 W/m² | - |
| 1778006904 | 20.56° C | 67% | 1008.9 hPa | 0 mm | 1.79 m/s, 192° | 870 W/m² | - |
| 1778006601 | 21.11° C | 65% | 1009.1 hPa | 0 mm | 3.58 m/s, 183° | 763 W/m² | - |
| 1778006298 | 21.11° C | 64% | 1009.1 hPa | 0 mm | 4.02 m/s, 237° | 1026 W/m² | - |
| 1778005995 | 21.11° C | 64% | 1009.2 hPa | 0 mm | 5.81 m/s, 217° | 967 W/m² | - |
| 1778005692 | 20.56° C | 69% | 1009 hPa | 0 mm | 3.13 m/s, 224° | 967 W/m² | - |
| 1778005389 | 20.56° C | 67% | 1009 hPa | 0 mm | 5.81 m/s, 205° | 537 W/m² | - |
| 1778005085 | 20° C | 71% | 1009.1 hPa | 0 mm | 2.24 m/s, 159° | 863 W/m² | - |
| 1778004783 | 20° C | 71% | 1009.1 hPa | 0 mm | 3.58 m/s, 226° | 897 W/m² | - |
| 1778004479 | 20° C | 71% | 1009.1 hPa | 0 mm | 2.68 m/s, 220° | 914 W/m² | - |
| 1778004176 | 20° C | 73% | 1009.3 hPa | 0 mm | 2.68 m/s, 213° | 413 W/m² | - |
| 1778003872 | 19.44° C | 76% | 1009.2 hPa | 0 mm | 1.79 m/s, 218° | 615 W/m² | - |
| 1778003569 | 19.44° C | 75% | 1009.3 hPa | 0 mm | 3.13 m/s, 186° | 444 W/m² | - |
| 1778003265 | 18.89° C | 76% | 1009.2 hPa | 0 mm | 1.79 m/s, 174° | 550 W/m² | - |
| 1778002963 | 18.89° C | 77% | 1009.5 hPa | 0 mm | 2.24 m/s, 202° | 412 W/m² | - |
| 1778002658 | 18.33° C | 80% | 1009.5 hPa | 0 mm | 0.89 m/s, 194° | 344 W/m² | - |
* Rain latest hour (hover to see other rain measurements)
** Current wind speed in m/s (hover to see current wind gust speed)